Midway, AR (72651)

3:09 PM CST on February 25, 2017 (GMT -0600)
Wildrose | | Change Station
Active Advisory: Special Statement

Elev 899 ft 36.39 °N, 92.46 °W | Updated 32 seconds ago

Clear
Clear
49.4 °F
Feels Like 49 °F
N
0.0
Wind Variable Wind from ESE

Today
High -- | Low -- °F
--% Chance of Precip.
Yesterday
High -- | Low -- °F
Precip. -- in
Pressure 30.13 in
Visibility 10.0 miles
Clouds Clear
Windchill 49 °F
Dew Point 18 °F
Humidity 29%
Rainfall 0.00 in
Snow Depth Not available.
6:45 AM 6:01 PM
Waning Crescent, 1% visible
METAR KBPK 252053Z AUTO 34010G16KT 10SM CLR 07/M11 A3011 RMK AO2 SLP201 T00721111 58013
Pressure 30.13 in
Visibility 10.0 miles
Clouds Clear
Windchill 49 °F
Dew Point 18 °F
Humidity 29%
Rainfall 0.00 in
Snow Depth Not available.
6:45 AM 6:01 PM
Waning Crescent, 1% visible
METAR KBPK 252053Z AUTO 34010G16KT 10SM CLR 07/M11 A3011 RMK AO2 SLP201 T00721111 58013

Get Your Daily Forecast Email!

Thanks for signing up!

Be on the lookout for a verification email in your inbox.

You'll start receiving the daily forecast at 8 AM.

×

10-Day Weather Forecast

Almanac

Astronomy

Feb. 25, 2017 Rise Set
Actual Time
Civil Twilight
Nautical Twilight
Astronomical Twilight
Moon
Length of Visible Light
Length of Day
Tomorrow will be .
, % of the Moon is Illuminated

Today's Extremes

State Highs State Lows

Community

WunderPhotos

Upload Photos

1,962,540 photos uploaded!

WunderBlog® & News

Nearby

Air Quality

  Air Quality AQ Index Pollutant
Not available.

Snow Depth

Station Depth Elevation

Earthquake Activity

City Distance Mag. Time & Date
Minimum magnitude displayed is 2.5.

Coastal Water Temperatures

Place Temperature

Stations

Nearby Weather Stations

Station Location Temp. Windchill Dew Point Humidity Wind Precip. Elev Updated Type
                   

Watches & Warnings

Special Statement
Issued: 1:36 PM CST Feb. 25, 2017 – National Weather Service

... Freezing temperatures likely over much of Arkansas tonight...

High pressure will settle over the region tonight resulting in clear
skies and light winds. As such, temperatures are expected to fall
below freezing across a large part of the state.

Freezing temperatures will last several hours, at least in northern
and much of central Arkansas. Due to the recent warm weather, many
plants have begun to bloom. Freezing temperatures will likely damage
or even kill any sensitive plants that are unprotected.

Caution should be taken to protect any sensitive outdoor plants and
vegetation. Consider bringing in outdoor pets as well.


56